sensor_id;sensor_type;location;lat;lon;timestamp;pressure;altitude;pressure_sealevel;temperature;humidity
7109;BME280;29079;41.930;25.558;2023-06-22T00:02:09;99804.16;;;21.99;87.58
7109;BME280;29079;41.930;25.558;2023-06-22T00:04:56;99801.41;;;21.92;87.08
7109;BME280;29079;41.930;25.558;2023-06-22T00:07:44;99806.16;;;21.35;89.31
7109;BME280;29079;41.930;25.558;2023-06-22T00:10:32;99808.00;;;21.28;89.92
7109;BME280;29079;41.930;25.558;2023-06-22T00:13:21;99800.59;;;21.15;90.58
7109;BME280;29079;41.930;25.558;2023-06-22T00:16:08;99810.31;;;21.31;90.44
7109;BME280;29079;41.930;25.558;2023-06-22T00:18:58;99816.66;;;21.45;88.83
7109;BME280;29079;41.930;25.558;2023-06-22T00:21:46;99816.84;;;21.09;90.54
7109;BME280;29079;41.930;25.558;2023-06-22T00:24:39;99823.88;;;20.75;91.38
7109;BME280;29079;41.930;25.558;2023-06-22T00:27:27;99823.09;;;21.09;89.91
7109;BME280;29079;41.930;25.558;2023-06-22T00:30:15;99830.41;;;20.80;90.97
7109;BME280;29079;41.930;25.558;2023-06-22T00:33:03;99831.47;;;21.14;89.84
7109;BME280;29079;41.930;25.558;2023-06-22T00:35:55;99828.72;;;21.08;90.16
7109;BME280;29079;41.930;25.558;2023-06-22T00:38:43;99831.16;;;20.96;90.86
7109;BME280;29079;41.930;25.558;2023-06-22T00:41:31;99833.06;;;21.65;87.63
7109;BME280;29079;41.930;25.558;2023-06-22T00:44:19;99823.19;;;21.99;87.09
7109;BME280;29079;41.930;25.558;2023-06-22T00:47:07;99829.97;;;22.23;84.98
7109;BME280;29079;41.930;25.558;2023-06-22T00:49:55;99828.59;;;21.92;86.17
7109;BME280;29079;41.930;25.558;2023-06-22T00:52:44;99837.09;;;22.38;84.80
7109;BME280;29079;41.930;25.558;2023-06-22T00:55:32;99804.38;;;21.49;86.78
7109;BME280;29079;41.930;25.558;2023-06-22T00:58:23;99835.34;;;21.27;89.54
7109;BME280;29079;41.930;25.558;2023-06-22T01:01:11;99833.94;;;21.72;87.63
7109;BME280;29079;41.930;25.558;2023-06-22T01:04:00;99827.50;;;22.35;84.89
7109;BME280;29079;41.930;25.558;2023-06-22T01:06:56;99831.56;;;22.04;85.89
7109;BME280;29079;41.930;25.558;2023-06-22T01:09:57;99831.81;;;21.61;88.44
7109;BME280;29079;41.930;25.558;2023-06-22T01:12:53;99834.59;;;21.39;89.58
7109;BME280;29079;41.930;25.558;2023-06-22T01:15:46;99842.72;;;21.39;89.74
7109;BME280;29079;41.930;25.558;2023-06-22T01:18:40;99850.06;;;21.46;89.68
7109;BME280;29079;41.930;25.558;2023-06-22T01:21:31;99843.19;;;21.15;91.79
7109;BME280;29079;41.930;25.558;2023-06-22T01:24:27;99846.72;;;21.15;92.08
7109;BME280;29079;41.930;25.558;2023-06-22T01:27:28;99845.22;;;21.06;92.90
7109;BME280;29079;41.930;25.558;2023-06-22T01:30:21;99839.88;;;21.19;92.23
7109;BME280;29079;41.930;25.558;2023-06-22T01:33:13;99807.47;;;20.83;93.01
7109;BME280;29079;41.930;25.558;2023-06-22T01:36:03;99836.88;;;21.08;93.16
7109;BME280;29079;41.930;25.558;2023-06-22T01:38:52;99827.09;;;21.13;92.95
7109;BME280;29079;41.930;25.558;2023-06-22T01:41:41;99823.78;;;20.90;94.21
7109;BME280;29079;41.930;25.558;2023-06-22T01:44:30;99817.13;;;20.92;94.38
7109;BME280;29079;41.930;25.558;2023-06-22T01:47:20;99820.88;;;20.91;94.35
7109;BME280;29079;41.930;25.558;2023-06-22T01:50:09;99820.25;;;20.89;94.53
7109;BME280;29079;41.930;25.558;2023-06-22T01:52:56;99817.88;;;20.79;94.84
7109;BME280;29079;41.930;25.558;2023-06-22T01:55:45;99826.25;;;20.84;95.24
7109;BME280;29079;41.930;25.558;2023-06-22T01:58:33;99797.91;;;20.87;94.16
7109;BME280;29079;41.930;25.558;2023-06-22T02:01:25;99827.72;;;21.09;93.12
7109;BME280;29079;41.930;25.558;2023-06-22T02:04:19;99826.59;;;20.75;95.26
7109;BME280;29079;41.930;25.558;2023-06-22T02:07:12;99826.72;;;20.66;95.76
7109;BME280;29079;41.930;25.558;2023-06-22T02:10:03;99834.91;;;20.51;96.83
7109;BME280;29079;41.930;25.558;2023-06-22T02:12:54;99824.00;;;20.45;96.92
7109;BME280;29079;41.930;25.558;2023-06-22T02:15:42;99835.91;;;20.50;96.86
7109;BME280;29079;41.930;25.558;2023-06-22T02:18:30;99839.72;;;20.56;97.29
7109;BME280;29079;41.930;25.558;2023-06-22T02:21:20;99840.53;;;20.72;95.74
7109;BME280;29079;41.930;25.558;2023-06-22T02:24:08;99827.56;;;20.67;96.03
7109;BME280;29079;41.930;25.558;2023-06-22T02:26:57;99863.75;;;21.02;94.18
7109;BME280;29079;41.930;25.558;2023-06-22T02:29:45;99855.28;;;21.12;92.91
7109;BME280;29079;41.930;25.558;2023-06-22T02:32:32;99855.38;;;20.97;94.28
7109;BME280;29079;41.930;25.558;2023-06-22T02:35:21;99854.91;;;20.94;94.85
7109;BME280;29079;41.930;25.558;2023-06-22T02:38:10;99870.22;;;20.58;96.28
7109;BME280;29079;41.930;25.558;2023-06-22T02:40:58;99871.88;;;20.38;97.33
7109;BME280;29079;41.930;25.558;2023-06-22T02:43:46;99866.47;;;20.81;95.05
7109;BME280;29079;41.930;25.558;2023-06-22T02:46:34;99866.88;;;20.78;95.23
7109;BME280;29079;41.930;25.558;2023-06-22T02:49:23;99869.59;;;20.78;95.31
7109;BME280;29079;41.930;25.558;2023-06-22T02:52:11;99868.25;;;20.67;95.84
7109;BME280;29079;41.930;25.558;2023-06-22T02:55:01;99852.50;;;21.05;93.09
7109;BME280;29079;41.930;25.558;2023-06-22T02:57:48;99869.69;;;20.91;94.27
7109;BME280;29079;41.930;25.558;2023-06-22T03:00:39;99874.97;;;20.56;96.44
7109;BME280;29079;41.930;25.558;2023-06-22T03:03:27;99874.41;;;20.39;97.39
7109;BME280;29079;41.930;25.558;2023-06-22T03:06:15;99867.88;;;20.33;97.69
7109;BME280;29079;41.930;25.558;2023-06-22T03:09:04;99873.78;;;20.22;97.90
7109;BME280;29079;41.930;25.558;2023-06-22T03:11:53;99876.13;;;20.25;97.60
7109;BME280;29079;41.930;25.558;2023-06-22T03:14:41;99877.03;;;20.32;96.86
7109;BME280;29079;41.930;25.558;2023-06-22T03:17:29;99849.59;;;20.21;96.60
7109;BME280;29079;41.930;25.558;2023-06-22T03:20:17;99874.44;;;20.24;96.53
7109;BME280;29079;41.930;25.558;2023-06-22T03:23:05;99874.19;;;20.19;96.76
7109;BME280;29079;41.930;25.558;2023-06-22T03:25:53;99874.13;;;19.97;97.34
7109;BME280;29079;41.930;25.558;2023-06-22T03:28:43;99866.72;;;20.06;97.16
7109;BME280;29079;41.930;25.558;2023-06-22T03:31:31;99864.13;;;19.98;97.59
7109;BME280;29079;41.930;25.558;2023-06-22T03:34:19;99870.47;;;20.05;97.23
7109;BME280;29079;41.930;25.558;2023-06-22T03:37:07;99872.63;;;19.95;97.32
7109;BME280;29079;41.930;25.558;2023-06-22T03:39:55;99864.53;;;19.80;97.26
7109;BME280;29079;41.930;25.558;2023-06-22T03:42:43;99867.69;;;19.83;97.27
7109;BME280;29079;41.930;25.558;2023-06-22T03:45:32;99876.53;;;19.92;96.91
7109;BME280;29079;41.930;25.558;2023-06-22T03:48:20;99877.97;;;19.88;96.20
7109;BME280;29079;41.930;25.558;2023-06-22T03:51:08;99879.19;;;19.86;96.10
7109;BME280;29079;41.930;25.558;2023-06-22T03:53:56;99873.25;;;20.12;94.50
7109;BME280;29079;41.930;25.558;2023-06-22T03:56:44;99873.50;;;19.95;95.15
7109;BME280;29079;41.930;25.558;2023-06-22T03:59:31;99881.44;;;20.18;94.49
7109;BME280;29079;41.930;25.558;2023-06-22T04:02:21;99876.94;;;20.04;95.22
7109;BME280;29079;41.930;25.558;2023-06-22T04:05:09;99880.75;;;19.95;95.58
7109;BME280;29079;41.930;25.558;2023-06-22T04:07:57;99879.53;;;19.97;95.74
7109;BME280;29079;41.930;25.558;2023-06-22T04:10:45;99885.66;;;20.21;94.48
7109;BME280;29079;41.930;25.558;2023-06-22T04:13:33;99871.22;;;19.99;95.80
7109;BME280;29079;41.930;25.558;2023-06-22T04:16:21;99880.66;;;20.03;96.03
7109;BME280;29079;41.930;25.558;2023-06-22T04:19:10;99845.78;;;19.78;96.18
7109;BME280;29079;41.930;25.558;2023-06-22T04:22:03;99881.97;;;19.92;96.95
7109;BME280;29079;41.930;25.558;2023-06-22T04:24:52;99885.41;;;20.01;96.67
7109;BME280;29079;41.930;25.558;2023-06-22T04:27:41;99886.41;;;20.15;96.27
7109;BME280;29079;41.930;25.558;2023-06-22T04:30:29;99885.53;;;20.29;95.59
7109;BME280;29079;41.930;25.558;2023-06-22T04:33:18;99890.53;;;20.47;94.89
7109;BME280;29079;41.930;25.558;2023-06-22T04:36:07;99887.25;;;20.52;94.60
7109;BME280;29079;41.930;25.558;2023-06-22T04:38:55;99879.53;;;20.70;93.58
7109;BME280;29079;41.930;25.558;2023-06-22T04:41:44;99888.19;;;20.81;93.20
7109;BME280;29079;41.930;25.558;2023-06-22T04:44:32;99887.53;;;21.00;92.28
7109;BME280;29079;41.930;25.558;2023-06-22T04:47:19;99891.94;;;21.01;91.98
7109;BME280;29079;41.930;25.558;2023-06-22T04:50:08;99890.69;;;21.04;92.09
7109;BME280;29079;41.930;25.558;2023-06-22T04:52:57;99886.63;;;21.21;91.73
7109;BME280;29079;41.930;25.558;2023-06-22T04:55:46;99902.66;;;21.38;91.12
7109;BME280;29079;41.930;25.558;2023-06-22T04:58:35;99889.63;;;21.27;92.00
7109;BME280;29079;41.930;25.558;2023-06-22T05:01:23;99894.50;;;21.38;92.00
7109;BME280;29079;41.930;25.558;2023-06-22T05:04:12;99898.50;;;21.42;92.57
7109;BME280;29079;41.930;25.558;2023-06-22T05:07:00;99912.41;;;21.61;92.04
7109;BME280;29079;41.930;25.558;2023-06-22T05:09:50;99906.38;;;22.00;89.46
7109;BME280;29079;41.930;25.558;2023-06-22T05:12:38;99909.81;;;22.29;87.84
7109;BME280;29079;41.930;25.558;2023-06-22T05:15:26;99910.00;;;22.76;85.09
7109;BME280;29079;41.930;25.558;2023-06-22T05:18:16;99891.50;;;22.45;86.25
7109;BME280;29079;41.930;25.558;2023-06-22T05:21:11;99910.38;;;22.53;85.92
7109;BME280;29079;41.930;25.558;2023-06-22T05:23:58;99908.09;;;22.63;85.75
7109;BME280;29079;41.930;25.558;2023-06-22T05:26:50;99915.88;;;22.86;84.52
7109;BME280;29079;41.930;25.558;2023-06-22T05:29:39;99924.63;;;22.88;85.25
7109;BME280;29079;41.930;25.558;2023-06-22T05:32:27;99912.91;;;22.81;82.58
7109;BME280;29079;41.930;25.558;2023-06-22T05:35:15;99924.41;;;22.76;81.51
7109;BME280;29079;41.930;25.558;2023-06-22T05:38:03;99920.66;;;22.77;80.91
7109;BME280;29079;41.930;25.558;2023-06-22T05:40:51;99923.16;;;22.86;81.18
7109;BME280;29079;41.930;25.558;2023-06-22T05:43:41;99919.63;;;22.92;81.30
7109;BME280;29079;41.930;25.558;2023-06-22T05:46:29;99918.41;;;23.08;82.15
7109;BME280;29079;41.930;25.558;2023-06-22T05:49:16;99931.19;;;23.27;81.66
7109;BME280;29079;41.930;25.558;2023-06-22T05:52:04;99925.91;;;23.06;82.06
7109;BME280;29079;41.930;25.558;2023-06-22T05:54:52;99928.91;;;23.31;80.68
7109;BME280;29079;41.930;25.558;2023-06-22T05:57:41;99929.09;;;23.23;81.73
7109;BME280;29079;41.930;25.558;2023-06-22T06:00:31;99912.78;;;23.29;82.42
7109;BME280;29079;41.930;25.558;2023-06-22T06:03:19;99921.97;;;23.49;80.36
7109;BME280;29079;41.930;25.558;2023-06-22T06:06:07;99926.31;;;23.70;79.95
7109;BME280;29079;41.930;25.558;2023-06-22T06:08:57;99921.72;;;23.57;80.41
7109;BME280;29079;41.930;25.558;2023-06-22T06:11:46;99918.13;;;23.76;79.21
7109;BME280;29079;41.930;25.558;2023-06-22T06:14:34;99914.38;;;23.77;79.88
7109;BME280;29079;41.930;25.558;2023-06-22T06:17:23;99905.75;;;23.87;76.83
7109;BME280;29079;41.930;25.558;2023-06-22T06:20:11;99904.50;;;23.96;76.04
7109;BME280;29079;41.930;25.558;2023-06-22T06:22:59;99909.06;;;24.09;76.88
7109;BME280;29079;41.930;25.558;2023-06-22T06:25:47;99885.84;;;23.80;79.02
7109;BME280;29079;41.930;25.558;2023-06-22T06:28:35;99898.16;;;24.09;78.80
7109;BME280;29079;41.930;25.558;2023-06-22T06:31:23;99892.28;;;24.06;78.39
7109;BME280;29079;41.930;25.558;2023-06-22T06:34:15;99893.28;;;24.18;78.19
7109;BME280;29079;41.930;25.558;2023-06-22T06:37:03;99892.56;;;24.36;77.62
7109;BME280;29079;41.930;25.558;2023-06-22T06:39:51;99894.69;;;24.34;76.43
7109;BME280;29079;41.930;25.558;2023-06-22T06:42:40;99888.56;;;24.39;75.03
7109;BME280;29079;41.930;25.558;2023-06-22T06:45:30;99894.16;;;24.50;75.33
7109;BME280;29079;41.930;25.558;2023-06-22T06:48:21;99892.69;;;24.48;75.23
7109;BME280;29079;41.930;25.558;2023-06-22T06:51:10;99889.72;;;24.56;75.14
7109;BME280;29079;41.930;25.558;2023-06-22T06:53:58;99894.06;;;24.71;73.87
7109;BME280;29079;41.930;25.558;2023-06-22T06:56:46;99891.81;;;24.61;73.39
7109;BME280;29079;41.930;25.558;2023-06-22T06:59:34;99894.31;;;24.56;73.31
7109;BME280;29079;41.930;25.558;2023-06-22T07:02:22;99896.44;;;24.54;74.12
7109;BME280;29079;41.930;25.558;2023-06-22T07:05:11;99864.16;;;24.50;74.03
7109;BME280;29079;41.930;25.558;2023-06-22T07:08:01;99898.59;;;24.83;72.96
7109;BME280;29079;41.930;25.558;2023-06-22T07:10:49;99904.06;;;24.83;70.88
7109;BME280;29079;41.930;25.558;2023-06-22T07:13:37;99906.13;;;24.88;68.24
7109;BME280;29079;41.930;25.558;2023-06-22T07:16:25;99908.94;;;25.07;70.31
7109;BME280;29079;41.930;25.558;2023-06-22T07:19:14;99919.31;;;25.16;69.74
7109;BME280;29079;41.930;25.558;2023-06-22T07:22:03;99912.13;;;25.22;68.88
7109;BME280;29079;41.930;25.558;2023-06-22T07:24:52;99912.09;;;25.29;68.02
7109;BME280;29079;41.930;25.558;2023-06-22T07:27:44;99912.53;;;25.26;67.82
7109;BME280;29079;41.930;25.558;2023-06-22T07:30:33;99916.59;;;25.16;67.24
7109;BME280;29079;41.930;25.558;2023-06-22T07:33:21;99909.19;;;25.24;67.02
7109;BME280;29079;41.930;25.558;2023-06-22T07:36:09;99904.94;;;25.28;67.51
7109;BME280;29079;41.930;25.558;2023-06-22T07:38:57;99894.00;;;25.34;68.20
7109;BME280;29079;41.930;25.558;2023-06-22T07:41:46;99910.84;;;25.50;67.27
7109;BME280;29079;41.930;25.558;2023-06-22T07:44:34;99917.78;;;25.52;67.60
7109;BME280;29079;41.930;25.558;2023-06-22T07:47:22;99913.84;;;25.67;67.23
7109;BME280;29079;41.930;25.558;2023-06-22T07:50:12;99908.09;;;25.75;67.82
7109;BME280;29079;41.930;25.558;2023-06-22T07:52:59;99915.97;;;25.65;67.78
7109;BME280;29079;41.930;25.558;2023-06-22T07:55:47;99915.66;;;25.73;67.54
7109;BME280;29079;41.930;25.558;2023-06-22T07:58:37;99908.69;;;25.77;66.52
7109;BME280;29079;41.930;25.558;2023-06-22T08:01:25;99909.38;;;25.91;66.42
7109;BME280;29079;41.930;25.558;2023-06-22T08:04:13;99899.53;;;26.09;66.64
7109;BME280;29079;41.930;25.558;2023-06-22T08:07:01;99907.34;;;26.05;64.84
7109;BME280;29079;41.930;25.558;2023-06-22T08:09:50;99901.66;;;26.06;64.23
7109;BME280;29079;41.930;25.558;2023-06-22T08:12:38;99901.56;;;26.13;64.41
7109;BME280;29079;41.930;25.558;2023-06-22T08:15:27;99905.19;;;26.26;63.92
7109;BME280;29079;41.930;25.558;2023-06-22T08:18:16;99894.91;;;26.39;64.09
7109;BME280;29079;41.930;25.558;2023-06-22T08:21:04;99893.38;;;26.44;63.76
7109;BME280;29079;41.930;25.558;2023-06-22T08:23:52;99896.16;;;26.55;63.58
7109;BME280;29079;41.930;25.558;2023-06-22T08:26:40;99890.97;;;26.66;62.75
7109;BME280;29079;41.930;25.558;2023-06-22T08:29:28;99889.91;;;26.67;62.92
7109;BME280;29079;41.930;25.558;2023-06-22T08:32:17;99895.28;;;26.73;62.04
7109;BME280;29079;41.930;25.558;2023-06-22T08:35:06;99894.72;;;26.83;62.46
7109;BME280;29079;41.930;25.558;2023-06-22T08:37:55;99892.38;;;26.87;61.31
7109;BME280;29079;41.930;25.558;2023-06-22T08:40:43;99891.28;;;26.88;61.68
7109;BME280;29079;41.930;25.558;2023-06-22T08:43:31;99885.31;;;26.91;61.06
7109;BME280;29079;41.930;25.558;2023-06-22T08:46:19;99881.09;;;27.19;59.40
7109;BME280;29079;41.930;25.558;2023-06-22T08:49:11;99884.75;;;27.24;57.07
7109;BME280;29079;41.930;25.558;2023-06-22T08:51:59;99886.34;;;27.20;59.02
7109;BME280;29079;41.930;25.558;2023-06-22T08:54:47;99871.78;;;27.32;58.68
7109;BME280;29079;41.930;25.558;2023-06-22T08:57:35;99871.91;;;27.25;58.20
7109;BME280;29079;41.930;25.558;2023-06-22T09:00:25;99877.25;;;27.32;58.94
7109;BME280;29079;41.930;25.558;2023-06-22T09:03:15;99886.13;;;27.45;58.36
7109;BME280;29079;41.930;25.558;2023-06-22T09:06:05;99874.19;;;27.52;58.31
7109;BME280;29079;41.930;25.558;2023-06-22T09:08:53;99882.75;;;27.32;58.35
7109;BME280;29079;41.930;25.558;2023-06-22T09:11:40;99875.88;;;27.53;59.05
7109;BME280;29079;41.930;25.558;2023-06-22T09:14:28;99876.69;;;27.53;57.83
7109;BME280;29079;41.930;25.558;2023-06-22T09:17:16;99876.81;;;27.58;55.56
7109;BME280;29079;41.930;25.558;2023-06-22T09:20:06;99875.97;;;27.70;55.42
7109;BME280;29079;41.930;25.558;2023-06-22T09:22:59;99873.59;;;27.61;55.97
7109;BME280;29079;41.930;25.558;2023-06-22T09:25:47;99870.13;;;27.66;55.45
7109;BME280;29079;41.930;25.558;2023-06-22T09:28:35;99876.22;;;27.68;57.21
7109;BME280;29079;41.930;25.558;2023-06-22T09:31:23;99872.97;;;27.83;56.29
7109;BME280;29079;41.930;25.558;2023-06-22T09:34:12;99866.19;;;27.74;55.80
7109;BME280;29079;41.930;25.558;2023-06-22T09:36:59;99841.91;;;27.54;55.69
7109;BME280;29079;41.930;25.558;2023-06-22T09:39:49;99863.50;;;28.03;55.34
7109;BME280;29079;41.930;25.558;2023-06-22T09:42:38;99857.69;;;27.99;56.26
7109;BME280;29079;41.930;25.558;2023-06-22T09:45:26;99875.28;;;28.15;55.48
7109;BME280;29079;41.930;25.558;2023-06-22T09:48:14;99868.72;;;28.16;56.35
7109;BME280;29079;41.930;25.558;2023-06-22T09:51:02;99866.69;;;28.11;56.61
7109;BME280;29079;41.930;25.558;2023-06-22T09:53:50;99869.09;;;28.08;56.15
7109;BME280;29079;41.930;25.558;2023-06-22T09:56:41;99859.16;;;28.19;54.84
7109;BME280;29079;41.930;25.558;2023-06-22T09:59:29;99868.81;;;28.21;53.49
7109;BME280;29079;41.930;25.558;2023-06-22T10:02:16;99867.25;;;28.25;55.17
7109;BME280;29079;41.930;25.558;2023-06-22T10:05:05;99867.56;;;28.29;53.68
7109;BME280;29079;41.930;25.558;2023-06-22T10:07:54;99867.88;;;28.44;54.35
7109;BME280;29079;41.930;25.558;2023-06-22T10:10:42;99864.19;;;28.39;54.17
7109;BME280;29079;41.930;25.558;2023-06-22T10:13:31;99858.78;;;28.27;56.71
7109;BME280;29079;41.930;25.558;2023-06-22T10:16:19;99867.94;;;28.33;52.10
7109;BME280;29079;41.930;25.558;2023-06-22T10:19:07;99863.13;;;28.40;53.57
7109;BME280;29079;41.930;25.558;2023-06-22T10:21:55;99863.25;;;28.33;52.40
7109;BME280;29079;41.930;25.558;2023-06-22T10:24:43;99859.56;;;28.56;52.91
7109;BME280;29079;41.930;25.558;2023-06-22T10:27:31;99850.84;;;28.59;52.28
7109;BME280;29079;41.930;25.558;2023-06-22T10:30:20;99856.88;;;28.73;51.31
7109;BME280;29079;41.930;25.558;2023-06-22T10:33:09;99853.78;;;28.70;51.65
7109;BME280;29079;41.930;25.558;2023-06-22T10:35:57;99858.22;;;28.88;50.89
7109;BME280;29079;41.930;25.558;2023-06-22T10:38:45;99849.41;;;28.69;51.33
7109;BME280;29079;41.930;25.558;2023-06-22T10:41:33;99851.03;;;28.70;51.74
7109;BME280;29079;41.930;25.558;2023-06-22T10:44:21;99846.91;;;28.67;51.51
7109;BME280;29079;41.930;25.558;2023-06-22T10:47:10;99843.31;;;28.66;50.58
7109;BME280;29079;41.930;25.558;2023-06-22T10:49:58;99832.91;;;29.03;50.56
7109;BME280;29079;41.930;25.558;2023-06-22T10:52:46;99829.50;;;28.95;50.76
7109;BME280;29079;41.930;25.558;2023-06-22T10:55:34;99826.09;;;28.88;51.90
7109;BME280;29079;41.930;25.558;2023-06-22T10:58:41;99823.09;;;28.90;54.38
7109;BME280;29079;41.930;25.558;2023-06-22T11:01:29;99814.19;;;28.99;53.14
7109;BME280;29079;41.930;25.558;2023-06-22T11:04:24;99818.28;;;28.80;54.89
7109;BME280;29079;41.930;25.558;2023-06-22T11:07:12;99807.47;;;28.90;53.31
7109;BME280;29079;41.930;25.558;2023-06-22T11:10:00;99814.84;;;28.90;54.64
7109;BME280;29079;41.930;25.558;2023-06-22T11:12:48;99812.97;;;28.90;50.27
7109;BME280;29079;41.930;25.558;2023-06-22T11:15:36;99751.59;;;28.51;49.41
7109;BME280;29079;41.930;25.558;2023-06-22T11:18:24;99806.75;;;29.00;49.43
7109;BME280;29079;41.930;25.558;2023-06-22T11:21:13;99814.44;;;28.98;49.79
7109;BME280;29079;41.930;25.558;2023-06-22T11:24:01;99800.72;;;28.81;48.94
7109;BME280;29079;41.930;25.558;2023-06-22T11:26:49;99809.19;;;28.79;50.46
7109;BME280;29079;41.930;25.558;2023-06-22T11:29:37;99808.47;;;28.67;52.86
7109;BME280;29079;41.930;25.558;2023-06-22T11:32:26;99803.31;;;28.88;52.54
7109;BME280;29079;41.930;25.558;2023-06-22T11:35:14;99802.84;;;29.13;53.00
7109;BME280;29079;41.930;25.558;2023-06-22T11:38:03;99802.94;;;29.18;52.83
7109;BME280;29079;41.930;25.558;2023-06-22T11:40:51;99806.25;;;29.20;53.26
7109;BME280;29079;41.930;25.558;2023-06-22T11:43:39;99809.38;;;29.24;52.91
7109;BME280;29079;41.930;25.558;2023-06-22T11:46:27;99808.69;;;29.16;52.08
7109;BME280;29079;41.930;25.558;2023-06-22T11:49:15;99809.59;;;29.05;52.42
7109;BME280;29079;41.930;25.558;2023-06-22T11:52:03;99806.19;;;29.15;52.97
7109;BME280;29079;41.930;25.558;2023-06-22T11:54:52;99801.63;;;29.04;56.94
7109;BME280;29079;41.930;25.558;2023-06-22T11:57:53;99806.63;;;28.90;52.08
7109;BME280;29079;41.930;25.558;2023-06-22T12:00:41;99803.84;;;29.07;52.04
7109;BME280;29079;41.930;25.558;2023-06-22T12:03:37;99814.44;;;28.98;52.83
7109;BME280;29079;41.930;25.558;2023-06-22T12:06:25;99801.22;;;28.78;56.18
7109;BME280;29079;41.930;25.558;2023-06-22T12:09:13;99808.38;;;28.79;52.68
7109;BME280;29079;41.930;25.558;2023-06-22T12:12:03;99811.69;;;28.81;55.94
7109;BME280;29079;41.930;25.558;2023-06-22T12:14:54;99801.06;;;28.85;52.92
7109;BME280;29079;41.930;25.558;2023-06-22T12:17:42;99786.56;;;28.89;53.58
7109;BME280;29079;41.930;25.558;2023-06-22T12:20:30;99785.78;;;29.11;53.64
7109;BME280;29079;41.930;25.558;2023-06-22T12:23:19;99782.66;;;29.02;50.59
7109;BME280;29079;41.930;25.558;2023-06-22T12:26:07;99786.22;;;29.03;54.61
7109;BME280;29079;41.930;25.558;2023-06-22T12:28:56;99778.75;;;29.20;51.80
7109;BME280;29079;41.930;25.558;2023-06-22T12:31:44;99785.41;;;29.41;51.31
7109;BME280;29079;41.930;25.558;2023-06-22T12:34:31;99776.28;;;29.35;48.21
7109;BME280;29079;41.930;25.558;2023-06-22T12:37:19;99756.44;;;29.33;51.60
7109;BME280;29079;41.930;25.558;2023-06-22T12:40:08;99761.88;;;29.28;48.48
7109;BME280;29079;41.930;25.558;2023-06-22T12:42:56;99764.03;;;29.26;48.97
7109;BME280;29079;41.930;25.558;2023-06-22T12:45:45;99774.72;;;29.45;51.25
7109;BME280;29079;41.930;25.558;2023-06-22T12:48:33;99771.03;;;29.34;49.56
7109;BME280;29079;41.930;25.558;2023-06-22T12:51:28;99766.09;;;29.19;50.48
7109;BME280;29079;41.930;25.558;2023-06-22T12:54:15;99764.84;;;29.05;50.80
7109;BME280;29079;41.930;25.558;2023-06-22T12:57:03;99759.22;;;29.16;51.86
7109;BME280;29079;41.930;25.558;2023-06-22T12:59:51;99766.88;;;29.31;52.11
7109;BME280;29079;41.930;25.558;2023-06-22T13:02:41;99763.13;;;29.21;51.59
7109;BME280;29079;41.930;25.558;2023-06-22T13:05:31;99767.22;;;29.18;55.03
7109;BME280;29079;41.930;25.558;2023-06-22T13:08:21;99763.47;;;29.07;57.99
7109;BME280;29079;41.930;25.558;2023-06-22T13:11:29;99749.06;;;29.17;51.38
7109;BME280;29079;41.930;25.558;2023-06-22T13:14:17;99748.53;;;29.20;51.78
7109;BME280;29079;41.930;25.558;2023-06-22T13:17:05;99750.81;;;29.23;54.61
7109;BME280;29079;41.930;25.558;2023-06-22T13:19:54;99754.03;;;29.20;54.09
7109;BME280;29079;41.930;25.558;2023-06-22T13:22:42;99742.50;;;29.40;56.49
7109;BME280;29079;41.930;25.558;2023-06-22T13:25:30;99748.66;;;29.25;55.54
7109;BME280;29079;41.930;25.558;2023-06-22T13:28:18;99754.31;;;29.41;50.57
7109;BME280;29079;41.930;25.558;2023-06-22T13:31:14;99750.22;;;29.65;54.97
7109;BME280;29079;41.930;25.558;2023-06-22T13:34:02;99745.97;;;29.52;51.52
7109;BME280;29079;41.930;25.558;2023-06-22T13:36:51;99740.06;;;29.44;46.96
7109;BME280;29079;41.930;25.558;2023-06-22T13:39:41;99741.88;;;29.55;52.29
7109;BME280;29079;41.930;25.558;2023-06-22T13:42:29;99740.78;;;29.56;51.10
7109;BME280;29079;41.930;25.558;2023-06-22T13:45:17;99731.53;;;29.40;49.00
7109;BME280;29079;41.930;25.558;2023-06-22T13:48:06;99722.50;;;29.45;52.81
7109;BME280;29079;41.930;25.558;2023-06-22T13:50:54;99725.88;;;29.52;53.09
7109;BME280;29079;41.930;25.558;2023-06-22T13:53:44;99733.25;;;29.46;53.85
7109;BME280;29079;41.930;25.558;2023-06-22T13:56:32;99726.00;;;29.18;49.46
7109;BME280;29079;41.930;25.558;2023-06-22T13:59:20;99724.81;;;29.31;49.68
7109;BME280;29079;41.930;25.558;2023-06-22T14:02:08;99725.13;;;29.34;52.83
7109;BME280;29079;41.930;25.558;2023-06-22T14:04:56;99723.72;;;29.32;49.18
7109;BME280;29079;41.930;25.558;2023-06-22T14:07:44;99730.63;;;29.34;51.58
7109;BME280;29079;41.930;25.558;2023-06-22T14:10:34;99721.31;;;29.35;55.11
7109;BME280;29079;41.930;25.558;2023-06-22T14:13:22;99724.94;;;29.41;52.40
7109;BME280;29079;41.930;25.558;2023-06-22T14:16:10;99717.13;;;29.33;49.15
7109;BME280;29079;41.930;25.558;2023-06-22T14:18:58;99715.34;;;29.44;48.26
7109;BME280;29079;41.930;25.558;2023-06-22T14:21:45;99720.59;;;29.45;52.60
7109;BME280;29079;41.930;25.558;2023-06-22T14:24:33;99710.81;;;29.32;50.38
7109;BME280;29079;41.930;25.558;2023-06-22T14:27:22;99718.47;;;29.30;52.16
7109;BME280;29079;41.930;25.558;2023-06-22T14:30:11;99714.47;;;29.38;54.30
7109;BME280;29079;41.930;25.558;2023-06-22T14:32:59;99707.69;;;29.24;53.05
7109;BME280;29079;41.930;25.558;2023-06-22T14:35:47;99709.25;;;29.20;50.61
7109;BME280;29079;41.930;25.558;2023-06-22T14:38:35;99708.00;;;29.27;52.79
7109;BME280;29079;41.930;25.558;2023-06-22T14:41:23;99707.75;;;29.29;54.23
7109;BME280;29079;41.930;25.558;2023-06-22T14:44:13;99701.53;;;29.16;50.99
7109;BME280;29079;41.930;25.558;2023-06-22T14:47:01;99703.75;;;28.97;50.60
7109;BME280;29079;41.930;25.558;2023-06-22T14:49:48;99703.31;;;29.28;56.36
7109;BME280;29079;41.930;25.558;2023-06-22T14:52:36;99705.19;;;29.22;52.68
7109;BME280;29079;41.930;25.558;2023-06-22T14:55:24;99648.75;;;28.92;54.42